Time,TemperatureF,DewpointF,PressureIn,WindDirection,WindDirectionDegrees,WindSpeedMPH,WindSpeedGustMPH,Humidity,HourlyPrecipIn,Conditions,Clouds,dailyrainin,SoftwareType,DateUTC
2013-01-21 00:02:00,9.0,6.0,-100.00,SSW,210,2.0,3.0,87,-99.99,,,-99.99,,2013-01-21 08:02:00,
2013-01-21 01:02:00,7.0,3.0,-100.00,SE,140,3.0,3.0,83,-99.99,,,-99.99,,2013-01-21 09:02:00,
2013-01-21 01:12:00,7.0,3.0,-100.00,SE,140,3.0,3.0,83,-99.99,,,-99.99,,2013-01-21 09:12:00,
2013-01-21 02:02:00,6.0,3.0,-100.00,SE,130,2.0,3.0,87,-99.99,,,-99.99,,2013-01-21 10:02:00,
2013-01-21 02:10:00,7.0,3.0,-100.00,SE,135,0.0,1.0,83,-99.99,,,-99.99,,2013-01-21 10:10:00,
2013-01-21 02:12:00,6.0,3.0,-100.00,SE,130,2.0,3.0,87,-99.99,,,-99.99,,2013-01-21 10:12:00,
2013-01-21 03:02:00,7.0,3.0,-100.00,SE,135,0.0,1.0,83,-99.99,,,-99.99,,2013-01-21 11:02:00,
2013-01-21 03:10:00,7.0,4.0,-100.00,SSW,200,1.0,1.0,87,-99.99,,,-99.99,,2013-01-21 11:10:00,
2013-01-21 04:02:00,7.0,4.0,-100.00,SSW,200,1.0,1.0,87,-99.99,,,-99.99,,2013-01-21 12:02:00,
2013-01-21 05:02:00,7.0,4.0,-100.00,SE,140,1.0,1.0,87,-99.99,,,-99.99,,2013-01-21 13:02:00,
2013-01-21 05:10:00,7.0,4.0,-100.00,North,350,0.0,1.0,87,-99.99,,,-99.99,,2013-01-21 13:10:00,
2013-01-21 05:12:00,7.0,4.0,-100.00,SE,140,1.0,1.0,87,-99.99,,,-99.99,,2013-01-21 13:12:00,
2013-01-21 06:03:00,7.0,4.0,-100.00,North,350,0.0,1.0,87,-99.99,,,-99.99,,2013-01-21 14:03:00,
2013-01-21 07:03:00,5.0,1.0,-100.00,North,-999,0.0,0.0,83,-99.99,,,-99.99,,2013-01-21 15:03:00,
2013-01-21 08:03:00,4.0,0.0,-100.00,North,-999,0.0,0.0,83,-99.99,,,-99.99,,2013-01-21 16:03:00,
2013-01-21 09:02:00,7.0,3.0,-100.00,North,-999,0.0,0.0,83,-99.99,,,-99.99,,2013-01-21 17:02:00,
2013-01-21 10:03:00,11.0,8.0,-100.00,North,-999,0.0,0.0,87,-99.99,,,-99.99,,2013-01-21 18:03:00,
2013-01-21 11:10:00,22.0,19.0,-100.00,West,270,2.0,3.0,88,-99.99,,,-99.99,,2013-01-21 19:10:00,
2013-01-21 12:03:00,22.0,19.0,-100.00,West,270,2.0,3.0,88,-99.99,,,-99.99,,2013-01-21 20:03:00,
2013-01-21 12:10:00,26.0,21.0,-100.00,NW,305,2.0,3.0,81,-99.99,,,-99.99,,2013-01-21 20:10:00,
2013-01-21 13:03:00,26.0,21.0,-100.00,NW,305,2.0,3.0,81,-99.99,,,-99.99,,2013-01-21 21:03:00,
2013-01-21 13:10:00,27.0,17.0,-100.00,WSW,245,1.0,2.0,65,-99.99,,,-99.99,,2013-01-21 21:10:00,
2013-01-21 14:03:00,27.0,17.0,-100.00,WSW,245,1.0,2.0,65,-99.99,,,-99.99,,2013-01-21 22:03:00,
2013-01-21 14:10:00,26.0,15.0,-100.00,East,100,3.0,3.0,62,-99.99,,,-99.99,,2013-01-21 22:10:00,
2013-01-21 15:03:00,26.0,15.0,-100.00,East,100,3.0,3.0,62,-99.99,,,-99.99,,2013-01-21 23:03:00,
2013-01-21 15:10:00,25.0,15.0,-100.00,South,185,3.0,3.0,65,-99.99,,,-99.99,,2013-01-21 23:10:00,
2013-01-21 16:02:00,25.0,15.0,-100.00,South,185,3.0,3.0,65,-99.99,,,-99.99,,2013-01-22 00:02:00,
2013-01-21 16:10:00,21.0,13.0,-100.00,SE,145,3.0,3.0,70,-99.99,,,-99.99,,2013-01-22 00:10:00,
2013-01-21 17:02:00,21.0,13.0,-100.00,SE,145,3.0,3.0,70,-99.99,,,-99.99,,2013-01-22 01:02:00,
2013-01-21 17:10:00,13.0,8.0,-100.00,SSE,155,6.0,6.0,80,-99.99,,,-99.99,,2013-01-22 01:10:00,
2013-01-21 18:02:00,13.0,8.0,-100.00,SSE,155,6.0,6.0,80,-99.99,,,-99.99,,2013-01-22 02:02:00,
2013-01-21 19:02:00,8.0,5.0,-100.00,SSE,165,5.0,5.0,87,-99.99,,,-99.99,,2013-01-22 03:02:00,
2013-01-21 20:02:00,8.0,5.0,-100.00,SSE,150,3.0,3.0,87,-99.99,,,-99.99,,2013-01-22 04:02:00,
2013-01-21 20:12:00,8.0,5.0,-100.00,SSE,150,3.0,3.0,87,-99.99,,,-99.99,,2013-01-22 04:12:00,
2013-01-21 21:03:00,4.0,0.0,-100.00,SSW,195,2.0,3.0,83,-99.99,,,-99.99,,2013-01-22 05:03:00,
2013-01-21 22:02:00,5.0,1.0,-100.00,SE,145,1.0,1.0,83,-99.99,,,-99.99,,2013-01-22 06:02:00,
2013-01-21 23:02:00,2.0,-1.0,-100.00,North,-999,0.0,0.0,86,-99.99,,,-99.99,,2013-01-22 07:02:00,